sensor_id;sensor_type;location;lat;lon;timestamp;P1;durP1;ratioP1;P2;durP2;ratioP2
25331;SDS011;13284;52.748;13.452;2024-01-30T00:01:36;12.83;;;7.97;;
25331;SDS011;13284;52.748;13.452;2024-01-30T00:04:02;12.40;;;6.70;;
25331;SDS011;13284;52.748;13.452;2024-01-30T00:06:28;9.77;;;7.43;;
25331;SDS011;13284;52.748;13.452;2024-01-30T00:08:53;9.17;;;6.83;;
25331;SDS011;13284;52.748;13.452;2024-01-30T00:11:19;10.67;;;7.00;;
25331;SDS011;13284;52.748;13.452;2024-01-30T00:13:44;9.83;;;6.60;;
25331;SDS011;13284;52.748;13.452;2024-01-30T00:16:19;7.60;;;6.50;;
25331;SDS011;13284;52.748;13.452;2024-01-30T00:18:49;8.77;;;6.50;;
25331;SDS011;13284;52.748;13.452;2024-01-30T00:21:15;9.80;;;7.07;;
25331;SDS011;13284;52.748;13.452;2024-01-30T00:23:41;7.57;;;6.40;;
25331;SDS011;13284;52.748;13.452;2024-01-30T00:26:07;7.70;;;6.40;;
25331;SDS011;13284;52.748;13.452;2024-01-30T00:28:32;14.23;;;8.03;;
25331;SDS011;13284;52.748;13.452;2024-01-30T00:30:57;13.20;;;7.67;;
25331;SDS011;13284;52.748;13.452;2024-01-30T00:33:23;9.13;;;6.00;;
25331;SDS011;13284;52.748;13.452;2024-01-30T00:35:48;9.90;;;6.80;;
25331;SDS011;13284;52.748;13.452;2024-01-30T00:38:14;11.43;;;6.10;;
25331;SDS011;13284;52.748;13.452;2024-01-30T00:40:39;11.40;;;6.70;;
25331;SDS011;13284;52.748;13.452;2024-01-30T00:43:05;10.17;;;6.10;;
25331;SDS011;13284;52.748;13.452;2024-01-30T00:45:30;11.00;;;7.20;;
25331;SDS011;13284;52.748;13.452;2024-01-30T00:47:56;7.90;;;6.07;;
25331;SDS011;13284;52.748;13.452;2024-01-30T00:50:22;9.97;;;6.43;;
25331;SDS011;13284;52.748;13.452;2024-01-30T00:52:47;6.87;;;6.00;;
25331;SDS011;13284;52.748;13.452;2024-01-30T00:55:13;8.70;;;5.80;;
25331;SDS011;13284;52.748;13.452;2024-01-30T00:57:39;8.20;;;5.80;;
25331;SDS011;13284;52.748;13.452;2024-01-30T01:00:05;10.60;;;6.10;;
25331;SDS011;13284;52.748;13.452;2024-01-30T01:02:33;12.23;;;7.00;;
25331;SDS011;13284;52.748;13.452;2024-01-30T01:04:59;11.77;;;7.40;;
25331;SDS011;13284;52.748;13.452;2024-01-30T01:07:25;7.93;;;5.80;;
25331;SDS011;13284;52.748;13.452;2024-01-30T01:09:50;11.80;;;6.40;;
25331;SDS011;13284;52.748;13.452;2024-01-30T01:12:16;8.37;;;6.33;;
25331;SDS011;13284;52.748;13.452;2024-01-30T01:14:41;10.10;;;6.20;;
25331;SDS011;13284;52.748;13.452;2024-01-30T01:17:07;10.03;;;6.67;;
25331;SDS011;13284;52.748;13.452;2024-01-30T01:19:32;9.13;;;5.67;;
25331;SDS011;13284;52.748;13.452;2024-01-30T01:21:58;6.80;;;5.93;;
25331;SDS011;13284;52.748;13.452;2024-01-30T01:24:23;6.90;;;6.03;;
25331;SDS011;13284;52.748;13.452;2024-01-30T01:26:49;9.37;;;5.80;;
25331;SDS011;13284;52.748;13.452;2024-01-30T01:29:15;9.20;;;6.40;;
25331;SDS011;13284;52.748;13.452;2024-01-30T01:31:41;7.20;;;6.00;;
25331;SDS011;13284;52.748;13.452;2024-01-30T01:34:09;10.73;;;6.93;;
25331;SDS011;13284;52.748;13.452;2024-01-30T01:36:35;8.70;;;6.40;;
25331;SDS011;13284;52.748;13.452;2024-01-30T01:39:01;6.33;;;5.63;;
25331;SDS011;13284;52.748;13.452;2024-01-30T01:41:33;10.50;;;6.10;;
25331;SDS011;13284;52.748;13.452;2024-01-30T01:43:59;9.03;;;6.63;;
25331;SDS011;13284;52.748;13.452;2024-01-30T01:46:30;11.20;;;6.07;;
25331;SDS011;13284;52.748;13.452;2024-01-30T01:48:57;9.13;;;6.20;;
25331;SDS011;13284;52.748;13.452;2024-01-30T01:51:23;8.47;;;6.20;;
25331;SDS011;13284;52.748;13.452;2024-01-30T01:53:52;10.30;;;6.20;;
25331;SDS011;13284;52.748;13.452;2024-01-30T01:56:19;9.13;;;6.77;;
25331;SDS011;13284;52.748;13.452;2024-01-30T01:58:46;10.07;;;6.57;;
25331;SDS011;13284;52.748;13.452;2024-01-30T02:01:12;12.90;;;6.97;;
25331;SDS011;13284;52.748;13.452;2024-01-30T02:03:39;6.60;;;5.97;;
25331;SDS011;13284;52.748;13.452;2024-01-30T02:06:05;8.30;;;6.03;;
25331;SDS011;13284;52.748;13.452;2024-01-30T02:08:31;8.87;;;6.07;;
25331;SDS011;13284;52.748;13.452;2024-01-30T02:10:57;10.90;;;5.97;;
25331;SDS011;13284;52.748;13.452;2024-01-30T02:13:23;8.60;;;5.57;;
25331;SDS011;13284;52.748;13.452;2024-01-30T02:15:49;8.67;;;6.33;;
25331;SDS011;13284;52.748;13.452;2024-01-30T02:18:15;13.70;;;6.53;;
25331;SDS011;13284;52.748;13.452;2024-01-30T02:20:41;12.23;;;5.70;;
25331;SDS011;13284;52.748;13.452;2024-01-30T02:23:08;10.03;;;5.73;;
25331;SDS011;13284;52.748;13.452;2024-01-30T02:25:42;10.07;;;5.70;;
25331;SDS011;13284;52.748;13.452;2024-01-30T02:28:14;9.30;;;5.80;;
25331;SDS011;13284;52.748;13.452;2024-01-30T02:30:40;10.37;;;6.83;;
25331;SDS011;13284;52.748;13.452;2024-01-30T02:33:07;10.80;;;6.03;;
25331;SDS011;13284;52.748;13.452;2024-01-30T02:35:33;9.07;;;5.90;;
25331;SDS011;13284;52.748;13.452;2024-01-30T02:37:59;10.30;;;7.00;;
25331;SDS011;13284;52.748;13.452;2024-01-30T02:40:24;6.90;;;5.00;;
25331;SDS011;13284;52.748;13.452;2024-01-30T02:42:50;8.67;;;6.20;;
25331;SDS011;13284;52.748;13.452;2024-01-30T02:45:16;9.57;;;6.20;;
25331;SDS011;13284;52.748;13.452;2024-01-30T02:47:41;8.43;;;6.07;;
25331;SDS011;13284;52.748;13.452;2024-01-30T02:50:07;9.67;;;6.17;;
25331;SDS011;13284;52.748;13.452;2024-01-30T02:52:33;7.07;;;5.93;;
25331;SDS011;13284;52.748;13.452;2024-01-30T02:54:59;8.67;;;6.43;;
25331;SDS011;13284;52.748;13.452;2024-01-30T02:57:24;9.40;;;6.10;;
25331;SDS011;13284;52.748;13.452;2024-01-30T02:59:50;8.80;;;5.80;;
25331;SDS011;13284;52.748;13.452;2024-01-30T03:02:16;10.37;;;6.17;;
25331;SDS011;13284;52.748;13.452;2024-01-30T03:04:41;12.23;;;6.50;;
25331;SDS011;13284;52.748;13.452;2024-01-30T03:07:07;7.93;;;5.80;;
25331;SDS011;13284;52.748;13.452;2024-01-30T03:09:34;7.13;;;5.83;;
25331;SDS011;13284;52.748;13.452;2024-01-30T03:12:00;17.73;;;6.47;;
25331;SDS011;13284;52.748;13.452;2024-01-30T03:14:25;10.87;;;6.10;;
25331;SDS011;13284;52.748;13.452;2024-01-30T03:16:51;9.17;;;6.10;;
25331;SDS011;13284;52.748;13.452;2024-01-30T03:19:17;8.67;;;5.20;;
25331;SDS011;13284;52.748;13.452;2024-01-30T03:21:43;7.27;;;5.50;;
25331;SDS011;13284;52.748;13.452;2024-01-30T03:24:09;12.27;;;7.90;;
25331;SDS011;13284;52.748;13.452;2024-01-30T03:26:34;10.27;;;6.60;;
25331;SDS011;13284;52.748;13.452;2024-01-30T03:29:00;6.83;;;6.07;;
25331;SDS011;13284;52.748;13.452;2024-01-30T03:31:26;8.50;;;5.90;;
25331;SDS011;13284;52.748;13.452;2024-01-30T03:33:52;10.60;;;6.60;;
25331;SDS011;13284;52.748;13.452;2024-01-30T03:36:17;7.20;;;5.70;;
25331;SDS011;13284;52.748;13.452;2024-01-30T03:38:43;11.37;;;6.33;;
25331;SDS011;13284;52.748;13.452;2024-01-30T03:41:08;7.07;;;5.70;;
25331;SDS011;13284;52.748;13.452;2024-01-30T03:43:34;7.80;;;6.20;;
25331;SDS011;13284;52.748;13.452;2024-01-30T03:46:00;6.83;;;5.30;;
25331;SDS011;13284;52.748;13.452;2024-01-30T03:48:27;9.70;;;5.87;;
25331;SDS011;13284;52.748;13.452;2024-01-30T03:50:53;12.27;;;6.00;;
25331;SDS011;13284;52.748;13.452;2024-01-30T03:53:18;6.93;;;5.40;;
25331;SDS011;13284;52.748;13.452;2024-01-30T03:55:44;8.87;;;5.43;;
25331;SDS011;13284;52.748;13.452;2024-01-30T03:58:10;7.60;;;6.30;;
25331;SDS011;13284;52.748;13.452;2024-01-30T04:00:35;11.20;;;5.97;;
25331;SDS011;13284;52.748;13.452;2024-01-30T04:03:01;10.10;;;6.07;;
25331;SDS011;13284;52.748;13.452;2024-01-30T04:05:26;8.80;;;5.73;;
25331;SDS011;13284;52.748;13.452;2024-01-30T04:07:52;9.40;;;5.67;;
25331;SDS011;13284;52.748;13.452;2024-01-30T04:10:17;8.23;;;5.23;;
25331;SDS011;13284;52.748;13.452;2024-01-30T04:12:43;11.27;;;6.40;;
25331;SDS011;13284;52.748;13.452;2024-01-30T04:15:08;8.63;;;5.80;;
25331;SDS011;13284;52.748;13.452;2024-01-30T04:17:34;11.47;;;5.77;;
25331;SDS011;13284;52.748;13.452;2024-01-30T04:20:00;8.77;;;5.80;;
25331;SDS011;13284;52.748;13.452;2024-01-30T04:22:25;11.63;;;7.23;;
25331;SDS011;13284;52.748;13.452;2024-01-30T04:24:51;6.67;;;5.83;;
25331;SDS011;13284;52.748;13.452;2024-01-30T04:27:16;11.37;;;6.50;;
25331;SDS011;13284;52.748;13.452;2024-01-30T04:29:43;11.10;;;6.10;;
25331;SDS011;13284;52.748;13.452;2024-01-30T04:32:09;11.17;;;6.53;;
25331;SDS011;13284;52.748;13.452;2024-01-30T04:34:35;7.40;;;5.70;;
25331;SDS011;13284;52.748;13.452;2024-01-30T04:37:02;8.73;;;5.80;;
25331;SDS011;13284;52.748;13.452;2024-01-30T04:39:27;10.40;;;6.57;;
25331;SDS011;13284;52.748;13.452;2024-01-30T04:41:53;7.87;;;4.83;;
25331;SDS011;13284;52.748;13.452;2024-01-30T04:44:18;9.27;;;5.60;;
25331;SDS011;13284;52.748;13.452;2024-01-30T04:46:44;6.80;;;5.40;;
25331;SDS011;13284;52.748;13.452;2024-01-30T04:49:10;10.67;;;7.17;;
25331;SDS011;13284;52.748;13.452;2024-01-30T04:51:35;8.37;;;5.60;;
25331;SDS011;13284;52.748;13.452;2024-01-30T04:54:01;10.63;;;5.77;;
25331;SDS011;13284;52.748;13.452;2024-01-30T04:56:27;7.83;;;5.73;;
25331;SDS011;13284;52.748;13.452;2024-01-30T04:58:53;13.30;;;7.20;;
25331;SDS011;13284;52.748;13.452;2024-01-30T05:01:19;8.20;;;6.00;;
25331;SDS011;13284;52.748;13.452;2024-01-30T05:03:45;7.57;;;5.23;;
25331;SDS011;13284;52.748;13.452;2024-01-30T05:06:11;8.20;;;5.73;;
25331;SDS011;13284;52.748;13.452;2024-01-30T05:08:37;8.73;;;5.80;;
25331;SDS011;13284;52.748;13.452;2024-01-30T05:11:03;11.27;;;6.73;;
25331;SDS011;13284;52.748;13.452;2024-01-30T05:13:30;8.30;;;6.37;;
25331;SDS011;13284;52.748;13.452;2024-01-30T05:15:56;9.40;;;6.63;;
25331;SDS011;13284;52.748;13.452;2024-01-30T05:18:22;8.40;;;6.00;;
25331;SDS011;13284;52.748;13.452;2024-01-30T05:20:49;10.20;;;7.03;;
25331;SDS011;13284;52.748;13.452;2024-01-30T05:23:16;9.03;;;5.80;;
25331;SDS011;13284;52.748;13.452;2024-01-30T05:25:42;10.98;;;7.30;;
25331;SDS011;13284;52.748;13.452;2024-01-30T05:28:08;10.93;;;7.30;;
25331;SDS011;13284;52.748;13.452;2024-01-30T05:30:33;9.60;;;7.13;;
25331;SDS011;13284;52.748;13.452;2024-01-30T05:32:59;11.27;;;7.60;;
25331;SDS011;13284;52.748;13.452;2024-01-30T05:35:25;13.37;;;8.10;;
25331;SDS011;13284;52.748;13.452;2024-01-30T05:37:51;23.90;;;15.57;;
25331;SDS011;13284;52.748;13.452;2024-01-30T05:40:17;20.03;;;10.97;;
25331;SDS011;13284;52.748;13.452;2024-01-30T05:42:43;12.77;;;7.80;;
25331;SDS011;13284;52.748;13.452;2024-01-30T05:45:09;7.80;;;6.30;;
25331;SDS011;13284;52.748;13.452;2024-01-30T05:47:35;10.82;;;8.30;;
25331;SDS011;13284;52.748;13.452;2024-01-30T05:50:00;10.80;;;6.30;;
25331;SDS011;13284;52.748;13.452;2024-01-30T05:52:26;9.80;;;6.93;;
25331;SDS011;13284;52.748;13.452;2024-01-30T05:54:52;11.43;;;6.23;;
25331;SDS011;13284;52.748;13.452;2024-01-30T05:57:18;10.50;;;6.13;;
25331;SDS011;13284;52.748;13.452;2024-01-30T05:59:44;7.93;;;5.90;;
25331;SDS011;13284;52.748;13.452;2024-01-30T06:02:10;8.40;;;6.47;;
25331;SDS011;13284;52.748;13.452;2024-01-30T06:04:36;10.30;;;6.10;;
25331;SDS011;13284;52.748;13.452;2024-01-30T06:07:02;9.97;;;6.17;;
25331;SDS011;13284;52.748;13.452;2024-01-30T06:09:29;10.13;;;5.87;;
25331;SDS011;13284;52.748;13.452;2024-01-30T06:11:55;9.47;;;6.70;;
25331;SDS011;13284;52.748;13.452;2024-01-30T06:14:21;8.77;;;6.30;;
25331;SDS011;13284;52.748;13.452;2024-01-30T06:16:46;9.30;;;6.47;;
25331;SDS011;13284;52.748;13.452;2024-01-30T06:19:12;9.83;;;6.20;;
25331;SDS011;13284;52.748;13.452;2024-01-30T06:21:37;10.67;;;6.80;;
25331;SDS011;13284;52.748;13.452;2024-01-30T06:24:03;11.23;;;7.10;;
25331;SDS011;13284;52.748;13.452;2024-01-30T06:26:29;8.63;;;6.00;;
25331;SDS011;13284;52.748;13.452;2024-01-30T06:28:55;12.77;;;7.67;;
25331;SDS011;13284;52.748;13.452;2024-01-30T06:31:20;11.77;;;6.40;;
25331;SDS011;13284;52.748;13.452;2024-01-30T06:33:49;10.70;;;6.80;;
25331;SDS011;13284;52.748;13.452;2024-01-30T06:36:15;9.20;;;6.33;;
25331;SDS011;13284;52.748;13.452;2024-01-30T06:38:41;9.60;;;7.10;;
25331;SDS011;13284;52.748;13.452;2024-01-30T06:41:07;9.10;;;5.50;;
25331;SDS011;13284;52.748;13.452;2024-01-30T06:43:32;7.60;;;6.10;;
25331;SDS011;13284;52.748;13.452;2024-01-30T06:45:58;10.37;;;7.80;;
25331;SDS011;13284;52.748;13.452;2024-01-30T06:48:24;12.83;;;8.70;;
25331;SDS011;13284;52.748;13.452;2024-01-30T06:50:50;8.77;;;6.90;;
25331;SDS011;13284;52.748;13.452;2024-01-30T06:53:18;11.03;;;7.00;;
25331;SDS011;13284;52.748;13.452;2024-01-30T06:55:44;11.10;;;7.40;;
25331;SDS011;13284;52.748;13.452;2024-01-30T06:58:10;9.20;;;6.30;;
25331;SDS011;13284;52.748;13.452;2024-01-30T07:00:35;10.30;;;7.27;;
25331;SDS011;13284;52.748;13.452;2024-01-30T07:03:01;6.97;;;5.40;;
25331;SDS011;13284;52.748;13.452;2024-01-30T07:05:26;8.83;;;6.70;;
25331;SDS011;13284;52.748;13.452;2024-01-30T07:07:52;13.50;;;6.50;;
25331;SDS011;13284;52.748;13.452;2024-01-30T07:10:17;8.60;;;6.40;;
25331;SDS011;13284;52.748;13.452;2024-01-30T07:12:43;12.23;;;6.10;;
25331;SDS011;13284;52.748;13.452;2024-01-30T07:15:08;11.30;;;6.93;;
25331;SDS011;13284;52.748;13.452;2024-01-30T07:17:35;8.67;;;6.27;;
25331;SDS011;13284;52.748;13.452;2024-01-30T07:20:01;10.90;;;6.50;;
25331;SDS011;13284;52.748;13.452;2024-01-30T07:22:30;12.33;;;7.10;;
25331;SDS011;13284;52.748;13.452;2024-01-30T07:24:56;11.43;;;6.80;;
25331;SDS011;13284;52.748;13.452;2024-01-30T07:27:21;8.30;;;6.93;;
25331;SDS011;13284;52.748;13.452;2024-01-30T07:29:47;8.67;;;5.97;;
25331;SDS011;13284;52.748;13.452;2024-01-30T07:32:12;9.87;;;7.30;;
25331;SDS011;13284;52.748;13.452;2024-01-30T07:34:38;10.23;;;6.80;;
25331;SDS011;13284;52.748;13.452;2024-01-30T07:37:03;12.73;;;6.93;;
25331;SDS011;13284;52.748;13.452;2024-01-30T07:39:29;8.00;;;6.10;;
25331;SDS011;13284;52.748;13.452;2024-01-30T07:41:54;11.30;;;6.60;;
25331;SDS011;13284;52.748;13.452;2024-01-30T07:44:20;10.60;;;7.40;;
25331;SDS011;13284;52.748;13.452;2024-01-30T07:46:46;9.77;;;6.43;;
25331;SDS011;13284;52.748;13.452;2024-01-30T07:49:11;11.50;;;6.83;;
25331;SDS011;13284;52.748;13.452;2024-01-30T07:51:39;11.13;;;6.70;;
25331;SDS011;13284;52.748;13.452;2024-01-30T07:54:04;12.13;;;7.40;;
25331;SDS011;13284;52.748;13.452;2024-01-30T07:56:30;9.03;;;6.80;;
25331;SDS011;13284;52.748;13.452;2024-01-30T07:58:55;11.20;;;6.10;;
25331;SDS011;13284;52.748;13.452;2024-01-30T08:01:21;9.17;;;7.03;;
25331;SDS011;13284;52.748;13.452;2024-01-30T08:03:46;8.93;;;6.63;;
25331;SDS011;13284;52.748;13.452;2024-01-30T08:06:12;9.47;;;7.03;;
25331;SDS011;13284;52.748;13.452;2024-01-30T08:08:37;8.70;;;6.70;;
25331;SDS011;13284;52.748;13.452;2024-01-30T08:11:03;8.77;;;6.97;;
25331;SDS011;13284;52.748;13.452;2024-01-30T08:13:29;10.23;;;6.70;;
25331;SDS011;13284;52.748;13.452;2024-01-30T08:15:54;10.20;;;6.47;;
25331;SDS011;13284;52.748;13.452;2024-01-30T08:18:20;12.23;;;6.90;;
25331;SDS011;13284;52.748;13.452;2024-01-30T08:20:45;12.47;;;7.40;;
25331;SDS011;13284;52.748;13.452;2024-01-30T08:23:11;11.87;;;6.33;;
25331;SDS011;13284;52.748;13.452;2024-01-30T08:25:36;8.20;;;6.70;;
25331;SDS011;13284;52.748;13.452;2024-01-30T08:28:02;11.90;;;6.97;;
25331;SDS011;13284;52.748;13.452;2024-01-30T08:30:28;12.00;;;7.90;;
25331;SDS011;13284;52.748;13.452;2024-01-30T08:32:53;9.03;;;6.23;;
25331;SDS011;13284;52.748;13.452;2024-01-30T08:35:19;11.10;;;7.93;;
25331;SDS011;13284;52.748;13.452;2024-01-30T08:37:44;8.67;;;7.17;;
25331;SDS011;13284;52.748;13.452;2024-01-30T08:40:10;12.33;;;6.50;;
25331;SDS011;13284;52.748;13.452;2024-01-30T08:42:35;14.07;;;7.80;;
25331;SDS011;13284;52.748;13.452;2024-01-30T08:45:01;10.97;;;7.30;;
25331;SDS011;13284;52.748;13.452;2024-01-30T08:47:27;9.07;;;6.57;;
25331;SDS011;13284;52.748;13.452;2024-01-30T08:49:52;12.00;;;7.60;;
25331;SDS011;13284;52.748;13.452;2024-01-30T08:52:18;10.43;;;7.27;;
25331;SDS011;13284;52.748;13.452;2024-01-30T08:54:43;12.13;;;7.30;;
25331;SDS011;13284;52.748;13.452;2024-01-30T08:57:09;10.90;;;6.60;;
25331;SDS011;13284;52.748;13.452;2024-01-30T08:59:34;10.37;;;7.17;;
25331;SDS011;13284;52.748;13.452;2024-01-30T09:02:00;11.20;;;7.27;;
25331;SDS011;13284;52.748;13.452;2024-01-30T09:04:25;11.97;;;7.10;;
25331;SDS011;13284;52.748;13.452;2024-01-30T09:06:51;12.50;;;8.17;;
25331;SDS011;13284;52.748;13.452;2024-01-30T09:09:17;10.10;;;7.10;;
25331;SDS011;13284;52.748;13.452;2024-01-30T09:11:43;13.17;;;7.03;;
25331;SDS011;13284;52.748;13.452;2024-01-30T09:14:08;10.80;;;6.80;;
25331;SDS011;13284;52.748;13.452;2024-01-30T09:16:34;16.67;;;7.63;;
25331;SDS011;13284;52.748;13.452;2024-01-30T09:18:59;11.47;;;7.57;;
25331;SDS011;13284;52.748;13.452;2024-01-30T09:21:25;11.27;;;7.97;;
25331;SDS011;13284;52.748;13.452;2024-01-30T09:23:54;9.53;;;7.70;;
25331;SDS011;13284;52.748;13.452;2024-01-30T09:26:19;9.30;;;6.97;;
25331;SDS011;13284;52.748;13.452;2024-01-30T09:28:45;10.93;;;7.27;;
25331;SDS011;13284;52.748;13.452;2024-01-30T09:31:11;11.13;;;8.17;;
25331;SDS011;13284;52.748;13.452;2024-01-30T09:33:37;15.13;;;8.60;;
25331;SDS011;13284;52.748;13.452;2024-01-30T09:36:03;11.37;;;8.23;;
25331;SDS011;13284;52.748;13.452;2024-01-30T09:38:30;12.53;;;7.90;;
25331;SDS011;13284;52.748;13.452;2024-01-30T09:40:55;14.27;;;8.13;;
25331;SDS011;13284;52.748;13.452;2024-01-30T09:43:22;12.03;;;8.20;;
25331;SDS011;13284;52.748;13.452;2024-01-30T09:45:49;10.10;;;7.77;;
25331;SDS011;13284;52.748;13.452;2024-01-30T09:48:16;11.30;;;8.17;;
25331;SDS011;13284;52.748;13.452;2024-01-30T09:50:41;14.43;;;8.57;;
25331;SDS011;13284;52.748;13.452;2024-01-30T09:53:10;12.60;;;9.20;;
25331;SDS011;13284;52.748;13.452;2024-01-30T09:55:38;13.27;;;7.70;;
25331;SDS011;13284;52.748;13.452;2024-01-30T09:58:07;11.13;;;8.13;;
25331;SDS011;13284;52.748;13.452;2024-01-30T10:00:33;10.57;;;8.17;;
25331;SDS011;13284;52.748;13.452;2024-01-30T10:02:58;12.43;;;8.70;;
25331;SDS011;13284;52.748;13.452;2024-01-30T10:05:26;10.27;;;8.30;;
25331;SDS011;13284;52.748;13.452;2024-01-30T10:07:55;11.97;;;8.57;;
25331;SDS011;13284;52.748;13.452;2024-01-30T10:10:22;13.43;;;8.70;;
25331;SDS011;13284;52.748;13.452;2024-01-30T10:12:51;13.30;;;8.70;;
25331;SDS011;13284;52.748;13.452;2024-01-30T10:15:17;13.13;;;9.17;;
25331;SDS011;13284;52.748;13.452;2024-01-30T10:17:47;10.33;;;7.93;;
25331;SDS011;13284;52.748;13.452;2024-01-30T10:20:12;10.30;;;8.87;;
25331;SDS011;13284;52.748;13.452;2024-01-30T10:22:39;16.87;;;8.33;;
25331;SDS011;13284;52.748;13.452;2024-01-30T10:25:07;11.40;;;7.83;;
25331;SDS011;13284;52.748;13.452;2024-01-30T10:27:34;10.90;;;8.43;;
25331;SDS011;13284;52.748;13.452;2024-01-30T10:29:59;16.10;;;10.27;;
25331;SDS011;13284;52.748;13.452;2024-01-30T10:32:25;15.10;;;8.37;;
25331;SDS011;13284;52.748;13.452;2024-01-30T10:34:50;10.20;;;8.30;;
25331;SDS011;13284;52.748;13.452;2024-01-30T10:37:16;11.70;;;8.40;;
25331;SDS011;13284;52.748;13.452;2024-01-30T10:39:44;9.23;;;7.13;;
25331;SDS011;13284;52.748;13.452;2024-01-30T10:42:11;15.80;;;9.00;;
25331;SDS011;13284;52.748;13.452;2024-01-30T10:47:27;11.63;;;8.20;;
25331;SDS011;13284;52.748;13.452;2024-01-30T10:49:54;11.47;;;8.40;;
25331;SDS011;13284;52.748;13.452;2024-01-30T10:52:21;14.43;;;8.87;;
25331;SDS011;13284;52.748;13.452;2024-01-30T10:54:50;14.40;;;9.10;;
25331;SDS011;13284;52.748;13.452;2024-01-30T10:57:17;13.47;;;9.80;;
25331;SDS011;13284;52.748;13.452;2024-01-30T10:59:43;17.03;;;8.83;;
25331;SDS011;13284;52.748;13.452;2024-01-30T11:02:09;14.37;;;7.83;;
25331;SDS011;13284;52.748;13.452;2024-01-30T11:04:40;11.47;;;8.60;;
25331;SDS011;13284;52.748;13.452;2024-01-30T11:07:19;10.20;;;7.33;;
25331;SDS011;13284;52.748;13.452;2024-01-30T11:09:50;10.97;;;7.57;;
25331;SDS011;13284;52.748;13.452;2024-01-30T11:12:16;11.20;;;7.83;;
25331;SDS011;13284;52.748;13.452;2024-01-30T11:14:46;10.07;;;7.20;;
25331;SDS011;13284;52.748;13.452;2024-01-30T11:17:11;11.50;;;7.77;;
25331;SDS011;13284;52.748;13.452;2024-01-30T11:19:37;10.73;;;7.67;;
25331;SDS011;13284;52.748;13.452;2024-01-30T11:22:03;10.57;;;7.93;;
25331;SDS011;13284;52.748;13.452;2024-01-30T11:24:31;8.83;;;7.33;;
25331;SDS011;13284;52.748;13.452;2024-01-30T11:27:08;12.90;;;8.30;;
25331;SDS011;13284;52.748;13.452;2024-01-30T11:29:35;10.77;;;8.20;;
25331;SDS011;13284;52.748;13.452;2024-01-30T11:32:01;12.87;;;8.27;;
25331;SDS011;13284;52.748;13.452;2024-01-30T11:34:27;11.43;;;8.20;;
25331;SDS011;13284;52.748;13.452;2024-01-30T11:36:55;14.03;;;7.83;;
25331;SDS011;13284;52.748;13.452;2024-01-30T11:39:27;12.53;;;8.63;;
25331;SDS011;13284;52.748;13.452;2024-01-30T11:41:54;9.83;;;7.10;;
25331;SDS011;13284;52.748;13.452;2024-01-30T11:44:20;7.60;;;5.80;;
25331;SDS011;13284;52.748;13.452;2024-01-30T11:46:49;7.67;;;5.90;;
25331;SDS011;13284;52.748;13.452;2024-01-30T11:49:16;10.00;;;6.67;;
25331;SDS011;13284;52.748;13.452;2024-01-30T11:51:42;8.57;;;6.77;;
25331;SDS011;13284;52.748;13.452;2024-01-30T11:54:08;9.60;;;5.60;;
25331;SDS011;13284;52.748;13.452;2024-01-30T11:56:33;11.27;;;6.50;;
25331;SDS011;13284;52.748;13.452;2024-01-30T11:58:59;9.10;;;6.27;;
25331;SDS011;13284;52.748;13.452;2024-01-30T12:01:26;7.07;;;5.43;;
25331;SDS011;13284;52.748;13.452;2024-01-30T12:03:52;8.67;;;5.83;;
25331;SDS011;13284;52.748;13.452;2024-01-30T12:06:17;8.40;;;6.27;;
25331;SDS011;13284;52.748;13.452;2024-01-30T12:08:54;9.67;;;6.20;;
25331;SDS011;13284;52.748;13.452;2024-01-30T12:11:24;7.23;;;5.80;;
25331;SDS011;13284;52.748;13.452;2024-01-30T12:13:50;11.67;;;6.63;;
25331;SDS011;13284;52.748;13.452;2024-01-30T12:16:17;10.07;;;5.87;;
25331;SDS011;13284;52.748;13.452;2024-01-30T12:18:43;7.40;;;6.10;;
25331;SDS011;13284;52.748;13.452;2024-01-30T12:21:08;9.23;;;6.33;;
25331;SDS011;13284;52.748;13.452;2024-01-30T12:23:34;16.17;;;9.13;;
25331;SDS011;13284;52.748;13.452;2024-01-30T12:26:00;8.33;;;5.93;;
25331;SDS011;13284;52.748;13.452;2024-01-30T12:28:28;11.20;;;6.40;;
25331;SDS011;13284;52.748;13.452;2024-01-30T12:31:00;9.23;;;5.67;;
25331;SDS011;13284;52.748;13.452;2024-01-30T12:33:28;8.67;;;6.03;;
25331;SDS011;13284;52.748;13.452;2024-01-30T12:35:54;7.23;;;5.63;;
25331;SDS011;13284;52.748;13.452;2024-01-30T12:38:20;8.87;;;5.83;;
25331;SDS011;13284;52.748;13.452;2024-01-30T12:40:45;8.40;;;6.10;;
25331;SDS011;13284;52.748;13.452;2024-01-30T12:43:11;7.67;;;5.80;;
25331;SDS011;13284;52.748;13.452;2024-01-30T12:45:39;10.63;;;6.30;;
25331;SDS011;13284;52.748;13.452;2024-01-30T12:48:04;10.50;;;5.80;;
25331;SDS011;13284;52.748;13.452;2024-01-30T12:50:30;8.90;;;5.90;;
25331;SDS011;13284;52.748;13.452;2024-01-30T12:52:56;6.50;;;5.27;;
25331;SDS011;13284;52.748;13.452;2024-01-30T12:55:21;7.60;;;6.20;;
25331;SDS011;13284;52.748;13.452;2024-01-30T12:57:49;8.90;;;5.60;;
25331;SDS011;13284;52.748;13.452;2024-01-30T13:00:15;11.33;;;7.00;;
25331;SDS011;13284;52.748;13.452;2024-01-30T13:02:42;8.80;;;6.13;;
25331;SDS011;13284;52.748;13.452;2024-01-30T13:05:09;6.40;;;5.70;;
25331;SDS011;13284;52.748;13.452;2024-01-30T13:07:35;5.97;;;5.30;;
25331;SDS011;13284;52.748;13.452;2024-01-30T13:10:01;7.30;;;6.10;;
25331;SDS011;13284;52.748;13.452;2024-01-30T13:12:28;9.43;;;6.03;;
25331;SDS011;13284;52.748;13.452;2024-01-30T13:14:54;10.30;;;6.27;;
25331;SDS011;13284;52.748;13.452;2024-01-30T13:17:20;8.63;;;6.03;;
25331;SDS011;13284;52.748;13.452;2024-01-30T13:19:45;8.87;;;6.90;;
25331;SDS011;13284;52.748;13.452;2024-01-30T13:22:11;9.90;;;6.70;;
25331;SDS011;13284;52.748;13.452;2024-01-30T13:24:37;9.23;;;6.60;;
25331;SDS011;13284;52.748;13.452;2024-01-30T13:27:02;8.53;;;6.60;;
25331;SDS011;13284;52.748;13.452;2024-01-30T13:29:30;8.07;;;6.17;;
25331;SDS011;13284;52.748;13.452;2024-01-30T13:31:56;9.97;;;6.03;;
25331;SDS011;13284;52.748;13.452;2024-01-30T13:34:21;8.50;;;6.27;;
25331;SDS011;13284;52.748;13.452;2024-01-30T13:36:47;8.60;;;6.50;;
25331;SDS011;13284;52.748;13.452;2024-01-30T13:39:13;7.30;;;6.57;;
25331;SDS011;13284;52.748;13.452;2024-01-30T13:41:40;9.37;;;6.60;;
25331;SDS011;13284;52.748;13.452;2024-01-30T13:44:07;13.20;;;7.17;;
25331;SDS011;13284;52.748;13.452;2024-01-30T13:46:33;8.73;;;6.70;;
25331;SDS011;13284;52.748;13.452;2024-01-30T13:48:59;9.90;;;7.10;;
25331;SDS011;13284;52.748;13.452;2024-01-30T13:51:25;9.00;;;7.00;;
25331;SDS011;13284;52.748;13.452;2024-01-30T13:53:50;11.37;;;7.27;;
25331;SDS011;13284;52.748;13.452;2024-01-30T13:56:16;11.30;;;7.00;;
25331;SDS011;13284;52.748;13.452;2024-01-30T13:58:41;10.07;;;7.60;;
25331;SDS011;13284;52.748;13.452;2024-01-30T14:01:07;8.37;;;6.93;;
25331;SDS011;13284;52.748;13.452;2024-01-30T14:03:34;8.30;;;6.63;;
25331;SDS011;13284;52.748;13.452;2024-01-30T14:06:00;11.17;;;7.00;;
25331;SDS011;13284;52.748;13.452;2024-01-30T14:08:26;10.70;;;7.23;;
25331;SDS011;13284;52.748;13.452;2024-01-30T14:10:53;7.83;;;5.83;;
25331;SDS011;13284;52.748;13.452;2024-01-30T14:13:20;11.20;;;6.63;;
25331;SDS011;13284;52.748;13.452;2024-01-30T14:15:45;11.53;;;6.53;;
25331;SDS011;13284;52.748;13.452;2024-01-30T14:18:11;11.03;;;7.03;;
25331;SDS011;13284;52.748;13.452;2024-01-30T14:20:36;9.17;;;7.03;;
25331;SDS011;13284;52.748;13.452;2024-01-30T14:23:02;10.53;;;7.03;;
25331;SDS011;13284;52.748;13.452;2024-01-30T14:25:27;10.33;;;7.27;;